Rock Creek, Texas
Current Conditions -  °F | °C
As of 2:51 PM on Thursday 23 Oct 2014 (Local Time) from KACT Reporting Station
Clear Clear  
Wind Chill: 79°   Ceiling: Unl
Heat Index: 80°   Visibility: 10mi
Dew Point: 56°   Wind: 3mph
Humidity: 45%   Direction: NA
Pressure: 30.09"   Gusts: NA
Location:  31.618°N, 97.2031°W
Report Text: KACT 231951Z VRB03KT 10SM CLR 26/13 A3009 RMK AO2 SLP183 T02610133
Loading
Personal Weather Stations






























Interactive Weather Map
Tropical Storm Tracking
New forecast layout! Learn more

10-Day Weather Forecast

Advertisements
Track Severe Weather on mobile